createdAt,value
2022-12-27T00:00:14.727Z,1.71
2022-12-27T00:02:44.655Z,1.77
2022-12-27T00:05:17.501Z,1.74
2022-12-27T00:07:47.211Z,1.74
2022-12-27T00:10:16.592Z,1.75
2022-12-27T00:12:46.136Z,1.71
2022-12-27T00:15:15.859Z,1.74
2022-12-27T00:17:45.566Z,1.73
2022-12-27T00:20:17.612Z,1.77
2022-12-27T00:22:47.557Z,1.74
2022-12-27T00:25:17.078Z,1.68
2022-12-27T00:27:46.677Z,1.71
2022-12-27T00:30:16.477Z,1.65
2022-12-27T00:32:45.886Z,1.71
2022-12-27T00:35:17.939Z,1.67
2022-12-27T00:37:47.668Z,1.69
2022-12-27T00:40:17.276Z,1.68
2022-12-27T00:42:46.886Z,1.71
2022-12-27T00:45:16.449Z,1.70
2022-12-27T00:47:45.908Z,1.64
2022-12-27T00:50:18.027Z,1.69
2022-12-27T00:52:47.671Z,1.68
2022-12-27T00:55:17.118Z,1.70
2022-12-27T00:57:46.629Z,1.69
2022-12-27T01:00:17.783Z,1.66
2022-12-27T01:02:47.246Z,1.71
2022-12-27T01:05:19.685Z,1.72
2022-12-27T01:07:49.161Z,1.70
2022-12-27T01:10:18.817Z,1.71
2022-12-27T01:12:48.283Z,1.67
2022-12-27T01:15:17.807Z,1.66
2022-12-27T01:17:47.289Z,1.66
2022-12-27T01:20:19.484Z,1.69
2022-12-27T01:22:48.962Z,1.63
2022-12-27T01:25:18.498Z,1.64
2022-12-27T01:27:47.934Z,1.62
2022-12-27T01:30:17.543Z,1.61
2022-12-27T01:32:47.041Z,1.64
2022-12-27T01:35:19.253Z,1.61
2022-12-27T01:37:48.750Z,1.61
2022-12-27T01:40:18.222Z,1.61
2022-12-27T01:42:55.441Z,1.61
2022-12-27T01:45:26.054Z,1.63
2022-12-27T01:47:59.858Z,1.63
2022-12-27T01:50:35.298Z,1.60
2022-12-27T01:53:09.904Z,1.60
2022-12-27T01:55:52.248Z,1.61
2022-12-27T01:58:26.925Z,1.57
2022-12-27T02:00:56.958Z,1.59
2022-12-27T02:03:28.324Z,1.59
2022-12-27T02:06:01.349Z,1.62
2022-12-27T02:08:39.772Z,1.58
2022-12-27T02:11:10.365Z,1.55
2022-12-27T02:13:43.139Z,1.59
2022-12-27T02:16:14.871Z,1.59
2022-12-27T02:18:44.597Z,1.56
2022-12-27T02:21:34.682Z,1.56
2022-12-27T02:24:19.843Z,1.52
2022-12-27T02:26:53.515Z,1.48
2022-12-27T02:29:51.903Z,1.56
2022-12-27T02:32:25.843Z,1.55
2022-12-27T02:35:02.377Z,1.57
2022-12-27T02:37:34.644Z,1.55
2022-12-27T02:40:18.607Z,1.56
2022-12-27T02:43:01.392Z,1.63
2022-12-27T02:45:48.852Z,1.57
2022-12-27T02:48:31.116Z,1.53
2022-12-27T02:51:18.439Z,1.50
2022-12-27T02:53:55.975Z,1.48
2022-12-27T02:56:43.973Z,1.50
2022-12-27T02:59:26.542Z,1.51
2022-12-27T03:02:19.211Z,1.48
2022-12-27T03:05:01.687Z,1.47
2022-12-27T03:07:39.218Z,1.45
2022-12-27T03:10:29.017Z,1.48
2022-12-27T03:13:14.662Z,1.47
2022-12-27T03:15:59.690Z,1.43
2022-12-27T03:18:54.127Z,1.46
2022-12-27T03:21:39.997Z,1.45
2022-12-27T03:24:37.161Z,1.42
2022-12-27T03:27:10.888Z,1.43
2022-12-27T03:29:53.147Z,1.48
2022-12-27T03:32:35.930Z,1.52
2022-12-27T03:35:14.255Z,1.54
2022-12-27T03:37:58.737Z,1.53
2022-12-27T03:41:05.524Z,1.53
2022-12-27T03:43:35.290Z,1.54
2022-12-27T03:46:25.026Z,1.58
2022-12-27T03:49:02.088Z,1.61
2022-12-27T03:51:37.393Z,1.70
2022-12-27T03:54:10.115Z,1.70
2022-12-27T03:56:41.844Z,1.72
2022-12-27T03:59:11.930Z,1.73
2022-12-27T04:01:42.550Z,1.75
2022-12-27T04:04:12.091Z,1.72
2022-12-27T04:06:44.103Z,1.66
2022-12-27T04:09:26.725Z,1.62
2022-12-27T04:12:08.645Z,1.56
2022-12-27T04:14:50.577Z,1.53
2022-12-27T04:17:32.495Z,1.56
2022-12-27T04:20:14.397Z,1.61
2022-12-27T04:22:58.895Z,1.61
2022-12-27T04:25:40.757Z,1.61
2022-12-27T04:28:22.666Z,1.66
2022-12-27T04:31:05.098Z,1.61
2022-12-27T04:33:47.027Z,1.64
2022-12-27T04:36:16.696Z,1.67
2022-12-27T04:38:48.737Z,1.67
2022-12-27T04:41:30.657Z,1.65
2022-12-27T04:44:12.643Z,1.71
2022-12-27T04:46:54.857Z,1.72
2022-12-27T04:49:37.928Z,1.75
2022-12-27T04:52:27.259Z,1.67
2022-12-27T04:54:59.291Z,1.72
2022-12-27T04:57:29.718Z,1.67
2022-12-27T05:00:11.651Z,1.58
2022-12-27T05:02:41.653Z,1.55
2022-12-27T05:05:12.433Z,1.54
2022-12-27T05:07:54.432Z,1.52
2022-12-27T05:10:38.950Z,1.55
2022-12-27T05:13:20.884Z,1.55
2022-12-27T05:15:51.192Z,1.54
2022-12-27T05:18:20.672Z,1.51
2022-12-27T05:20:50.094Z,1.50
2022-12-27T05:23:31.978Z,1.51
2022-12-27T05:26:04.562Z,1.53
2022-12-27T05:28:34.263Z,1.46
2022-12-27T05:31:05.314Z,1.46
2022-12-27T05:33:35.093Z,1.48
2022-12-27T05:36:04.528Z,1.48
2022-12-27T05:38:33.938Z,1.51
2022-12-27T05:41:06.576Z,1.52
2022-12-27T05:43:36.611Z,1.52
2022-12-27T05:46:07.124Z,1.53
2022-12-27T05:48:36.823Z,1.56
2022-12-27T05:51:10.543Z,1.54
2022-12-27T05:53:40.366Z,1.56
2022-12-27T05:56:14.769Z,1.57
2022-12-27T05:58:44.213Z,1.60
2022-12-27T06:01:17.197Z,1.58
2022-12-27T06:03:47.049Z,1.60
2022-12-27T06:06:16.986Z,1.53
2022-12-27T06:08:46.425Z,1.52
2022-12-27T06:11:19.880Z,1.53
2022-12-27T06:13:53.293Z,1.53
2022-12-27T06:16:24.604Z,1.55
2022-12-27T06:18:54.066Z,1.54
2022-12-27T06:21:24.501Z,1.56
2022-12-27T06:23:54.012Z,1.56
2022-12-27T06:26:29.908Z,1.53
2022-12-27T06:29:00.643Z,1.52
2022-12-27T06:31:30.598Z,1.53
2022-12-27T06:34:00.358Z,1.54
2022-12-27T06:36:30.405Z,1.54
2022-12-27T06:39:00.337Z,1.51
2022-12-27T06:41:32.370Z,1.50
2022-12-27T06:44:01.879Z,1.52
2022-12-27T06:46:31.443Z,1.51
2022-12-27T06:49:00.866Z,1.52
2022-12-27T06:51:30.348Z,1.51
2022-12-27T06:53:59.761Z,1.52
2022-12-27T06:56:31.759Z,1.52
2022-12-27T06:59:01.134Z,1.56
2022-12-27T07:01:31.175Z,1.54
2022-12-27T07:04:02.195Z,1.54
2022-12-27T07:06:33.314Z,1.50
2022-12-27T07:09:03.753Z,1.51
2022-12-27T07:11:38.048Z,1.43
2022-12-27T07:14:07.598Z,1.36
2022-12-27T07:16:37.059Z,1.35
2022-12-27T07:19:06.816Z,1.33
2022-12-27T07:21:36.208Z,1.34
2022-12-27T07:24:05.677Z,1.33
2022-12-27T07:26:37.680Z,1.31
2022-12-27T07:29:07.066Z,1.29
2022-12-27T07:31:36.806Z,1.28
2022-12-27T07:34:06.606Z,1.24
2022-12-27T07:36:39.539Z,1.23
2022-12-27T07:39:09.446Z,1.20
2022-12-27T07:41:41.464Z,1.21
2022-12-27T07:44:10.839Z,1.25
2022-12-27T07:46:40.233Z,1.24
2022-12-27T07:49:15.519Z,1.28
2022-12-27T07:51:46.930Z,1.33
2022-12-27T07:54:16.627Z,1.35
2022-12-27T07:56:48.777Z,1.33
2022-12-27T07:59:18.457Z,1.36
2022-12-27T08:02:00.477Z,1.36
2022-12-27T08:04:30.022Z,1.43
2022-12-27T08:07:03.476Z,1.42
2022-12-27T08:09:35.433Z,1.45
2022-12-27T08:12:08.171Z,1.44
2022-12-27T08:14:37.808Z,1.43
2022-12-27T08:17:09.568Z,1.41
2022-12-27T08:19:39.033Z,1.40
2022-12-27T08:22:09.875Z,1.39
2022-12-27T08:24:41.557Z,1.38
2022-12-27T08:27:13.974Z,1.38
2022-12-27T08:29:43.459Z,1.42
2022-12-27T08:32:12.913Z,1.43
2022-12-27T08:34:42.648Z,1.48
2022-12-27T08:37:12.279Z,1.47
2022-12-27T08:39:41.762Z,1.43
2022-12-27T08:42:14.442Z,1.46
2022-12-27T08:44:44.116Z,1.51
2022-12-27T08:47:13.541Z,1.56
2022-12-27T08:49:42.949Z,1.59
2022-12-27T08:52:12.382Z,1.59
2022-12-27T08:54:41.821Z,1.57
2022-12-27T08:57:13.875Z,1.56
2022-12-27T08:59:43.361Z,1.54
2022-12-27T09:02:14.356Z,1.58
2022-12-27T09:04:43.943Z,1.58
2022-12-27T09:07:13.339Z,1.59
2022-12-27T09:09:43.043Z,1.60
2022-12-27T09:12:15.173Z,1.61
2022-12-27T09:14:44.631Z,1.65
2022-12-27T09:17:14.058Z,1.68
2022-12-27T09:19:43.521Z,1.69
2022-12-27T09:22:12.896Z,1.68
2022-12-27T09:24:44.960Z,1.65
2022-12-27T09:27:16.969Z,1.59
2022-12-27T09:29:48.472Z,1.63
2022-12-27T09:32:18.211Z,1.67
2022-12-27T09:34:48.157Z,1.70
2022-12-27T09:37:17.580Z,1.71
2022-12-27T09:39:47.025Z,1.81
2022-12-27T09:45:20.977Z,1.88
2022-12-27T09:47:55.519Z,1.95
2022-12-27T09:50:29.949Z,2.01
2022-12-27T09:53:04.260Z,2.08
2022-12-27T09:55:45.104Z,2.12
2022-12-27T09:58:39.585Z,2.12
2022-12-27T10:01:24.220Z,2.16
2022-12-27T10:03:54.638Z,2.22
2022-12-27T10:06:49.993Z,2.27
2022-12-27T10:09:39.947Z,2.27
2022-12-27T10:12:18.738Z,2.27
2022-12-27T10:15:02.086Z,2.32
2022-12-27T10:17:41.465Z,2.33
2022-12-27T10:20:23.403Z,2.46
2022-12-27T10:22:56.184Z,2.46
2022-12-27T10:25:28.955Z,2.47
2022-12-27T10:28:02.404Z,2.47
2022-12-27T10:30:34.457Z,2.49
2022-12-27T10:33:04.003Z,2.54
2022-12-27T10:35:34.014Z,2.61
2022-12-27T10:38:03.572Z,2.60
2022-12-27T10:40:40.488Z,2.62
2022-12-27T10:43:17.448Z,2.67
2022-12-27T10:45:49.586Z,2.64
2022-12-27T10:48:21.775Z,2.73
2022-12-27T10:50:57.719Z,2.75
2022-12-27T10:53:33.254Z,2.66
2022-12-27T10:56:14.470Z,2.62
2022-12-27T11:01:26.067Z,2.72
2022-12-27T11:04:11.908Z,2.81
2022-12-27T11:06:46.445Z,2.82
2022-12-27T11:09:33.583Z,2.91
2022-12-27T11:12:20.484Z,3.03
2022-12-27T11:15:01.540Z,3.04
2022-12-27T11:17:39.105Z,3.12
2022-12-27T11:20:22.917Z,3.10
2022-12-27T11:22:55.326Z,3.20
2022-12-27T11:25:25.776Z,3.24
2022-12-27T11:27:57.680Z,3.29
2022-12-27T11:30:32.145Z,3.40
2022-12-27T11:33:06.712Z,3.37
2022-12-27T11:35:39.838Z,3.32
2022-12-27T11:38:09.355Z,3.22
2022-12-27T11:40:39.419Z,3.18
2022-12-27T11:43:11.045Z,3.17
2022-12-27T11:45:42.655Z,3.16
2022-12-27T11:48:22.533Z,3.03
2022-12-27T11:51:04.040Z,3.06
2022-12-27T11:53:56.776Z,3.16
2022-12-27T11:56:27.584Z,3.17
2022-12-27T11:59:23.464Z,3.16
2022-12-27T12:02:25.124Z,3.25
2022-12-27T12:05:10.670Z,3.28
2022-12-27T12:07:50.363Z,3.43
2022-12-27T12:10:28.088Z,3.52
2022-12-27T12:13:15.508Z,3.67
2022-12-27T12:16:03.577Z,3.77
2022-12-27T12:18:58.688Z,3.81
2022-12-27T12:21:33.758Z,3.69
2022-12-27T12:24:22.098Z,3.73
2022-12-27T12:26:59.659Z,3.73
2022-12-27T12:29:40.801Z,3.80
2022-12-27T12:32:28.412Z,3.78
2022-12-27T12:35:09.414Z,3.86
2022-12-27T12:37:55.455Z,3.76
2022-12-27T12:40:37.349Z,3.79
2022-12-27T12:43:19.779Z,3.82
2022-12-27T12:46:05.277Z,3.60
2022-12-27T12:48:53.772Z,3.66
2022-12-27T12:51:43.733Z,3.67
2022-12-27T12:54:25.308Z,3.72
2022-12-27T12:57:08.699Z,3.61
2022-12-27T12:59:51.986Z,3.67
2022-12-27T13:02:42.126Z,3.75
2022-12-27T13:05:16.305Z,3.77
2022-12-27T13:07:56.456Z,3.71
2022-12-27T13:10:47.425Z,3.71
2022-12-27T13:13:22.005Z,3.64
2022-12-27T13:15:59.530Z,3.55
2022-12-27T13:18:34.156Z,3.46
2022-12-27T13:21:09.992Z,3.40
2022-12-27T13:23:53.841Z,3.36
2022-12-27T13:26:31.513Z,3.35
2022-12-27T13:29:12.954Z,3.36
2022-12-27T13:31:47.900Z,3.32
2022-12-27T13:34:28.057Z,3.29
2022-12-27T13:37:12.604Z,3.24
2022-12-27T13:39:50.954Z,3.21
2022-12-27T13:42:46.870Z,3.18
2022-12-27T13:45:25.391Z,3.16
2022-12-27T13:48:06.973Z,3.13
2022-12-27T13:51:04.624Z,3.13
2022-12-27T13:53:54.416Z,3.13
2022-12-27T13:56:53.578Z,3.07
2022-12-27T13:59:42.813Z,3.12
2022-12-27T14:02:26.067Z,3.13
2022-12-27T14:05:14.264Z,3.09
2022-12-27T14:07:55.304Z,3.07
2022-12-27T14:10:36.231Z,3.03
2022-12-27T14:13:07.850Z,3.06
2022-12-27T14:16:11.918Z,2.95
2022-12-27T14:18:53.999Z,2.97
2022-12-27T14:21:49.402Z,2.99
2022-12-27T14:24:33.238Z,2.90
2022-12-27T14:27:27.211Z,2.92
2022-12-27T14:30:14.714Z,2.91
2022-12-27T14:33:17.279Z,2.86
2022-12-27T14:36:16.660Z,2.83
2022-12-27T14:39:16.029Z,2.81
2022-12-27T14:42:07.286Z,2.77
2022-12-27T14:45:03.285Z,2.74
2022-12-27T14:48:02.365Z,2.74
2022-12-27T14:51:02.006Z,2.69
2022-12-27T14:53:56.386Z,2.67
2022-12-27T14:56:33.445Z,2.64
2022-12-27T14:59:19.347Z,2.64
2022-12-27T15:01:58.900Z,2.61
2022-12-27T15:04:54.054Z,2.63
2022-12-27T15:07:45.097Z,2.54
2022-12-27T15:10:28.513Z,2.51
2022-12-27T15:13:09.033Z,2.54
2022-12-27T15:15:51.841Z,2.47
2022-12-27T15:18:31.935Z,2.50
2022-12-27T15:21:11.051Z,2.45
2022-12-27T15:23:48.825Z,2.48
2022-12-27T15:26:25.790Z,2.49
2022-12-27T15:29:07.401Z,2.46
2022-12-27T15:31:43.832Z,2.48
2022-12-27T15:34:31.980Z,2.46
2022-12-27T15:37:02.105Z,2.41
2022-12-27T15:39:52.510Z,2.46
2022-12-27T15:42:52.544Z,2.45
2022-12-27T15:45:34.479Z,2.44
2022-12-27T15:48:27.048Z,2.47
2022-12-27T15:51:01.060Z,2.46
2022-12-27T15:53:38.807Z,2.44
2022-12-27T15:56:24.936Z,2.46
2022-12-27T15:59:25.608Z,2.50
2022-12-27T16:02:25.279Z,2.51
2022-12-27T16:04:59.026Z,2.56
2022-12-27T16:07:43.358Z,2.58
2022-12-27T16:10:35.571Z,2.64
2022-12-27T16:13:22.239Z,2.62
2022-12-27T16:15:55.323Z,2.67
2022-12-27T16:18:49.235Z,2.65
2022-12-27T16:21:23.542Z,2.64
2022-12-27T16:23:55.692Z,2.64
2022-12-27T16:26:27.223Z,2.64
2022-12-27T16:28:59.678Z,2.66
2022-12-27T16:31:30.453Z,2.62
2022-12-27T16:34:01.286Z,2.56
2022-12-27T16:36:35.431Z,2.59
2022-12-27T16:39:42.802Z,2.56
2022-12-27T16:42:12.248Z,2.58
2022-12-27T16:44:54.657Z,2.54
2022-12-27T16:47:54.196Z,2.50
2022-12-27T16:50:40.898Z,2.46
2022-12-27T16:53:20.573Z,2.48
2022-12-27T16:56:14.598Z,2.42
2022-12-27T16:58:44.317Z,2.42
2022-12-27T17:01:46.449Z,2.42
2022-12-27T17:04:45.908Z,2.37
2022-12-27T17:07:46.968Z,2.38
2022-12-27T17:10:36.172Z,2.37
2022-12-27T17:13:08.456Z,2.36
2022-12-27T17:15:38.018Z,2.37
2022-12-27T17:18:12.218Z,2.33
2022-12-27T17:20:43.549Z,2.36
2022-12-27T17:23:13.263Z,2.35
2022-12-27T17:25:51.136Z,2.33
2022-12-27T17:28:23.536Z,2.34
2022-12-27T17:30:57.625Z,2.38
2022-12-27T17:33:35.620Z,2.33
2022-12-27T17:36:20.191Z,2.28
2022-12-27T17:39:00.338Z,2.27
2022-12-27T17:41:52.415Z,2.30
2022-12-27T17:44:47.839Z,2.29
2022-12-27T17:47:35.437Z,2.25
2022-12-27T17:50:07.362Z,2.29
2022-12-27T17:52:49.821Z,2.20
2022-12-27T17:55:34.641Z,2.23
2022-12-27T17:58:09.531Z,2.21
2022-12-27T18:00:43.597Z,2.21
2022-12-27T18:03:16.907Z,2.27
2022-12-27T18:05:49.476Z,2.28
2022-12-27T18:08:29.111Z,2.38
2022-12-27T18:10:58.819Z,2.41
2022-12-27T18:13:34.574Z,2.50
2022-12-27T18:16:08.990Z,2.47
2022-12-27T18:18:39.537Z,2.51
2022-12-27T18:21:09.385Z,2.54
2022-12-27T18:23:42.513Z,2.57
2022-12-27T18:26:14.668Z,2.64
2022-12-27T18:28:48.428Z,2.68
2022-12-27T18:31:24.222Z,2.70
2022-12-27T18:33:55.323Z,2.74
2022-12-27T18:36:28.424Z,2.83
2022-12-27T18:39:00.717Z,2.79
2022-12-27T18:41:30.949Z,2.81
2022-12-27T18:44:03.896Z,2.86
2022-12-27T18:46:36.534Z,2.86
2022-12-27T18:49:06.853Z,2.89
2022-12-27T18:51:37.667Z,2.92
2022-12-27T18:54:23.979Z,2.95
2022-12-27T18:56:54.284Z,2.95
2022-12-27T18:59:28.913Z,2.96
2022-12-27T19:01:59.755Z,2.96
2022-12-27T19:04:30.820Z,2.97
2022-12-27T19:07:08.805Z,2.98
2022-12-27T19:09:40.873Z,2.99
2022-12-27T19:12:24.285Z,2.99
2022-12-27T19:14:56.648Z,3.03
2022-12-27T19:17:29.720Z,3.04
2022-12-27T19:20:01.231Z,3.06
2022-12-27T19:22:38.491Z,3.04
2022-12-27T19:25:22.669Z,3.03
2022-12-27T19:28:03.567Z,3.04
2022-12-27T19:30:38.422Z,3.03
2022-12-27T19:33:11.319Z,3.00
2022-12-27T19:35:42.642Z,3.01
2022-12-27T19:38:20.654Z,3.00
2022-12-27T19:40:55.407Z,2.97
2022-12-27T19:43:28.174Z,2.96
2022-12-27T19:46:00.594Z,2.98
2022-12-27T19:48:30.161Z,2.87
2022-12-27T19:51:00.689Z,2.91
2022-12-27T19:53:33.863Z,2.95
2022-12-27T19:56:03.890Z,2.90
2022-12-27T19:58:33.676Z,2.91
2022-12-27T20:01:07.098Z,2.92
2022-12-27T20:03:36.727Z,2.90
2022-12-27T20:06:13.058Z,2.91
2022-12-27T20:08:51.389Z,2.90
2022-12-27T20:11:23.448Z,2.86
2022-12-27T20:13:52.986Z,2.86
2022-12-27T20:16:25.112Z,2.86
2022-12-27T20:18:54.971Z,2.87
2022-12-27T20:21:24.613Z,2.78
2022-12-27T20:23:54.179Z,2.82
2022-12-27T20:26:27.413Z,2.82
2022-12-27T20:28:56.942Z,2.76
2022-12-27T20:31:29.188Z,2.75
2022-12-27T20:33:59.225Z,2.72
2022-12-27T20:36:28.782Z,2.72
2022-12-27T20:39:01.255Z,2.73
2022-12-27T20:41:30.717Z,2.73
2022-12-27T20:44:02.699Z,2.72
2022-12-27T20:46:34.814Z,2.67
2022-12-27T20:49:04.306Z,2.69
2022-12-27T20:51:34.346Z,2.67
2022-12-27T20:54:05.207Z,2.64
2022-12-27T20:56:35.284Z,2.62
2022-12-27T20:59:04.982Z,2.62
2022-12-27T21:01:37.069Z,2.61
2022-12-27T21:04:07.400Z,2.60
2022-12-27T21:06:36.851Z,2.59
2022-12-27T21:09:08.455Z,2.64
2022-12-27T21:11:38.524Z,2.60
2022-12-27T21:14:08.602Z,2.59
2022-12-27T21:16:41.262Z,2.64
2022-12-27T21:19:10.876Z,2.62
2022-12-27T21:21:41.357Z,2.65
2022-12-27T21:24:12.441Z,2.65
2022-12-27T21:26:43.166Z,2.64
2022-12-27T21:29:14.515Z,2.66
2022-12-27T21:31:46.732Z,2.66
2022-12-27T21:34:16.755Z,2.72
2022-12-27T21:36:46.407Z,2.77
2022-12-27T21:39:16.063Z,2.76
2022-12-27T21:41:45.606Z,2.77
2022-12-27T21:44:15.231Z,2.84
2022-12-27T21:46:48.517Z,2.89
2022-12-27T21:49:18.296Z,2.97
2022-12-27T21:51:47.865Z,2.91
2022-12-27T21:54:17.315Z,2.95
2022-12-27T21:56:46.814Z,3.00
2022-12-27T21:59:16.310Z,3.05
2022-12-27T22:01:51.755Z,3.06
2022-12-27T22:04:22.521Z,3.09
2022-12-27T22:06:52.283Z,3.08
2022-12-27T22:09:21.819Z,3.12
2022-12-27T22:11:51.316Z,3.16
2022-12-27T22:14:25.402Z,3.20
2022-12-27T22:17:00.129Z,3.21
2022-12-27T22:19:29.663Z,3.27
2022-12-27T22:21:59.223Z,3.29
2022-12-27T22:24:29.449Z,3.32
2022-12-27T22:26:58.999Z,3.35
2022-12-27T22:29:34.870Z,3.36
2022-12-27T22:32:08.049Z,3.43
2022-12-27T22:34:37.583Z,3.44
2022-12-27T22:37:07.033Z,3.48
2022-12-27T22:39:36.515Z,3.50
2022-12-27T22:42:06.499Z,3.49
2022-12-27T22:44:35.945Z,3.54
2022-12-27T22:49:57.646Z,3.73
2022-12-27T22:52:27.202Z,3.73
2022-12-27T22:55:04.616Z,3.76
2022-12-27T22:57:36.982Z,3.86
2022-12-27T23:00:09.496Z,3.83
2022-12-27T23:02:41.885Z,3.88
2022-12-27T23:05:11.831Z,3.89
2022-12-27T23:08:05.782Z,3.94
2022-12-27T23:10:30.785Z,3.98
2022-12-27T23:13:00.279Z,4.03
2022-12-27T23:15:29.785Z,4.03
2022-12-27T23:18:02.124Z,4.08
2022-12-27T23:20:31.572Z,4.04
2022-12-27T23:23:01.234Z,4.12
2022-12-27T23:25:30.684Z,4.16
2022-12-27T23:28:02.843Z,4.23
2022-12-27T23:30:32.423Z,4.24
2022-12-27T23:33:04.526Z,4.28
2022-12-27T23:35:35.302Z,4.27
2022-12-27T23:38:05.029Z,4.29
2022-12-27T23:40:34.536Z,4.32
2022-12-27T23:43:50.019Z,4.29
2022-12-27T23:46:00.508Z,4.27
2022-12-27T23:48:32.623Z,4.35
2022-12-27T23:51:05.067Z,4.38
2022-12-27T23:53:34.697Z,4.36
2022-12-27T23:56:06.535Z,4.36
2022-12-27T23:58:36.326Z,4.29
